Brunswick, Nebraska
Current Conditions -  °F | °C
As of 2:32 AM on Monday 22 Dec 2014 (Local Time) from KOFK Reporting Station
Light Rain Light Rain  
Wind Chill: 36°   Ceiling: 1000
Heat Index: 43°   Visibility: 8mi
Dew Point: 40°   Wind: 14mph
Humidity: 89%   Direction: 180°S
Pressure: 29.51"   Gusts: NA
Location:  42.34°N, 97.97°W
Report Text: KOFK 220832Z AUTO 18012KT 8SM -RA OVC010 06/04 A2951 RMK AO2 RAB0758 CIG 007V014 P0000 T00610044
Loading
Personal Weather Stations






























Interactive Weather Map New forecast layout! Learn more

10-Day Weather Forecast

Advertisements
Track Severe Weather on mobile